Weather History for Clinton, OK

Change the Weather History Date:

Monday, March 18, 2013

  Actual Average (KCSM) Record (KCSM)
Temperature  
Mean Temperature 47 °F -  
Max Temperature 59 °F 59 °F 78 °F (2009)
Min Temperature 35 °F 37 °F 37 °F (1998)
Degree Days  
Heating Degree Days 18    
Moisture  
Dew Point 28 °F    
Average Humidity 57    
Maximum Humidity 93    
Minimum Humidity 19    
Precipitation  
Precipitation 0.00 in - - ()
Sea Level Pressure  
Sea Level Pressure 29.90 in    
Wind  
Wind Speed 10 mph (NE)    
Max Wind Speed 23 mph    
Max Gust Speed 28 mph    
Visibility 8 miles    
Events      
Averages and records for this station are not official NWS values.
T = Trace of Precipitation, MM = Missing Value Source: NWS Daily Summary

Daily Weather History Graph

Daily Weather History Graph

Search for Another Location

Airport:

Trip Planner

Search our weather history database for the weather conditions in past years. The results will help you decide how hot, cold, wet, or windy it might be!

Date:

Astronomy

Mar. 18, 2013 Rise Set
Actual Time 7:41 AM CDT 7:46 PM CDT
Civil Twilight 7:16 AM CDT 8:11 PM CDT
Nautical Twilight 6:46 AM CDT 8:41 PM CDT
Astronomical Twilight 6:16 AM CDT 9:11 PM CDT
Moon 11:54 AM CDT (3/18) 1:35 AM CDT (3/18)
Length of Visible Light 12h 55m
Length of Day
12h 04m
Waxing Crescent, 41% of the Moon is Illuminated
Mar 18
Waxing Crescent
Mar 19
First Quarter
Mar 27
Full
Apr 2
Last Quarter
Apr 10
New

Hourly Weather History & Observations

Time (CDT) Temp. Windchill Dew Point Humidity Pressure Visibility Wind Dir Wind Speed Gust Speed Precip Events Conditions
12:15 AM 37.4 °F 34.9 °F 33.8 °F 87% 29.65 in 7.0 mi ESE 3.5 mph - N/A   Mostly Cloudy
12:35 AM 37.4 °F 34.9 °F 33.8 °F 87% 29.65 in 7.0 mi ESE 3.5 mph - N/A   Mostly Cloudy
12:55 AM 37.4 °F 34.9 °F 33.8 °F 87% 29.64 in 5.0 mi East 3.5 mph - N/A   Mostly Cloudy
1:15 AM 35.6 °F 31.7 °F 33.8 °F 93% 29.64 in 5.0 mi East 4.6 mph - N/A   Mostly Cloudy
1:35 AM 35.6 °F 30.7 °F 33.8 °F 93% 29.63 in 5.0 mi ENE 5.8 mph - N/A   Overcast
1:55 AM 35.6 °F 32.8 °F 33.8 °F 93% 29.63 in 4.0 mi East 3.5 mph - N/A   Overcast
2:15 AM 35.6 °F 29.9 °F 33.8 °F 93% 29.64 in 4.0 mi NNE 6.9 mph - N/A   Overcast
2:35 AM 35.6 °F 25.2 °F 33.8 °F 93% 29.71 in 4.0 mi North 18.4 mph 23.0 mph N/A   Overcast
3:15 AM 37.4 °F 28.9 °F 35.6 °F 93% 29.72 in 5.0 mi NE 13.8 mph - N/A   Overcast
3:35 AM 37.4 °F 30.8 °F 35.6 °F 93% 29.72 in 5.0 mi NE 9.2 mph - N/A   Overcast
3:55 AM 37.4 °F 28.2 °F 35.6 °F 93% 29.73 in 4.0 mi NE 16.1 mph - N/A   Overcast
4:15 AM 37.4 °F 28.9 °F 35.6 °F 93% 29.73 in 3.0 mi NE 13.8 mph 19.6 mph N/A   Overcast
4:35 AM 37.4 °F 26.4 °F 35.6 °F 93% 29.79 in 3.0 mi North 23.0 mph 27.6 mph N/A   Overcast
4:55 AM 37.4 °F 26.9 °F 35.6 °F 93% 29.79 in 5.0 mi North 20.7 mph 26.5 mph N/A   Overcast
5:15 AM 37.4 °F 27.8 °F 35.6 °F 93% 29.81 in 5.0 mi North 17.3 mph 25.3 mph N/A   Overcast
5:35 AM 39.2 °F 30.8 °F 35.6 °F 87% 29.82 in 5.0 mi North 15.0 mph 24.2 mph N/A   Overcast
5:55 AM 39.2 °F 29.6 °F 35.6 °F 87% 29.83 in 5.0 mi NNE 19.6 mph - N/A   Overcast
6:15 AM 37.4 °F 30.3 °F 35.6 °F 93% 29.83 in 5.0 mi North 10.4 mph - N/A   Overcast
6:35 AM 37.4 °F 29.3 °F 35.6 °F 93% 29.86 in 4.0 mi NNW 12.7 mph - N/A   Overcast
7:15 AM 39.2 °F 31.6 °F 35.6 °F 87% 29.88 in 5.0 mi North 12.7 mph 21.9 mph N/A   Overcast
7:35 AM 39.2 °F 31.6 °F 35.6 °F 87% 29.89 in 5.0 mi North 12.7 mph - N/A   Overcast
7:55 AM 39.2 °F 32.5 °F 35.6 °F 87% 29.89 in 5.0 mi North 10.4 mph - N/A   Overcast
8:15 AM 37.4 °F 31.4 °F 35.6 °F 93% 29.91 in 5.0 mi NNW 8.1 mph - N/A   Overcast
8:35 AM 37.4 °F 32.1 °F 35.6 °F 93% 29.93 in 4.0 mi NNW 6.9 mph - N/A   Overcast
9:15 AM 41.0 °F 35.8 °F 35.6 °F 81% 29.94 in 5.0 mi North 8.1 mph - N/A   Haze
9:35 AM 42.8 °F 35.4 °F 35.6 °F 76% 29.94 in 7.0 mi North 15.0 mph - N/A   Clear
9:55 AM 44.6 °F 37.2 °F 33.8 °F 66% 29.95 in 10.0 mi North 17.3 mph 21.9 mph N/A   Clear
10:15 AM 46.4 °F 38.7 °F 32.0 °F 57% 29.96 in 10.0 mi North 20.7 mph 25.3 mph N/A   Clear
10:35 AM 46.4 °F 38.5 °F 32.0 °F 57% 29.97 in 10.0 mi North 21.9 mph 26.5 mph N/A   Clear
10:55 AM 48.2 °F - 30.2 °F 50% 29.97 in 10.0 mi NNE 21.9 mph 27.6 mph N/A   Clear
11:15 AM 50.0 °F - 30.2 °F 47% 29.97 in 10.0 mi NNE 19.6 mph 26.5 mph N/A   Clear
11:35 AM 50.0 °F - 26.6 °F 40% 29.99 in 10.0 mi NNE 20.7 mph 25.3 mph N/A   Clear
11:55 AM 50.0 °F - 26.6 °F 40% 29.99 in 10.0 mi NNE 19.6 mph 23.0 mph N/A   Clear
12:15 PM 51.8 °F - 26.6 °F 38% 30.00 in 10.0 mi NNE 15.0 mph 20.7 mph N/A   Clear
12:35 PM 51.8 °F - 26.6 °F 38% 30.00 in 10.0 mi North 13.8 mph 19.6 mph N/A   Clear
12:55 PM 53.6 °F - 24.8 °F 33% 30.00 in 10.0 mi North 16.1 mph 21.9 mph N/A   Clear
1:15 PM 53.6 °F - 24.8 °F 33% 30.01 in 10.0 mi NE 17.3 mph 21.9 mph N/A   Clear
1:35 PM 53.6 °F - 24.8 °F 33% 30.01 in 10.0 mi North 9.2 mph 19.6 mph N/A   Clear
1:55 PM 55.4 °F - 24.8 °F 31% 30.01 in 10.0 mi NNE 12.7 mph 16.1 mph N/A   Clear
2:15 PM 55.4 °F - 21.2 °F 26% 30.00 in 10.0 mi North 13.8 mph - N/A   Clear
2:35 PM 57.2 °F - 21.2 °F 25% 29.99 in 10.0 mi NNE 12.7 mph 19.6 mph N/A   Clear
2:55 PM 57.2 °F - 19.4 °F 23% 29.98 in 10.0 mi NNE 12.7 mph 19.6 mph N/A   Clear
3:15 PM 57.2 °F - 21.2 °F 25% 29.97 in 10.0 mi NNE 10.4 mph 18.4 mph N/A   Clear
3:35 PM 59.0 °F - 19.4 °F 22% 29.95 in 10.0 mi NNE 17.3 mph 20.7 mph N/A   Clear
3:55 PM 57.2 °F - 17.6 °F 21% 29.95 in 10.0 mi NNE 8.1 mph 19.6 mph N/A   Clear
4:15 PM 59.0 °F - 19.4 °F 22% 29.95 in 10.0 mi NNE 12.7 mph 18.4 mph N/A   Clear
4:35 PM 59.0 °F - 17.6 °F 20% 29.96 in 10.0 mi North 10.4 mph 17.3 mph N/A   Clear
4:55 PM 59.0 °F - 17.6 °F 20% 29.97 in 10.0 mi North 10.4 mph - N/A   Clear
5:15 PM 59.0 °F - 17.6 °F 20% 29.98 in 10.0 mi NNE 9.2 mph - N/A   Clear
5:35 PM 59.0 °F - 17.6 °F 20% 29.98 in 10.0 mi North 5.8 mph - N/A   Clear
5:55 PM 59.0 °F - 19.4 °F 22% 29.98 in 10.0 mi NNE 8.1 mph - N/A   Clear
6:15 PM 59.0 °F - 17.6 °F 20% 29.97 in 10.0 mi NW 4.6 mph - N/A   Clear
6:35 PM 59.0 °F - 15.8 °F 19% 29.97 in 10.0 mi ENE 4.6 mph - N/A   Clear
6:55 PM 59.0 °F - 17.6 °F 20% 29.98 in 10.0 mi NNE 3.5 mph - N/A   Clear
7:15 PM 55.4 °F - 21.2 °F 26% 29.98 in 10.0 mi ENE 8.1 mph - N/A   Clear
7:35 PM 53.6 °F - 23.0 °F 30% 29.98 in 10.0 mi East 5.8 mph - N/A   Clear
7:55 PM 51.8 °F - 24.8 °F 35% 29.98 in 10.0 mi East 5.8 mph - N/A   Clear
8:15 PM 50.0 °F - 26.6 °F 40% 29.98 in 10.0 mi East 4.6 mph - N/A   Clear
8:35 PM 46.4 °F 42.9 °F 26.6 °F 46% 29.99 in 10.0 mi East 6.9 mph - N/A   Clear
8:55 PM 46.4 °F 42.9 °F 26.6 °F 46% 29.98 in 10.0 mi ESE 6.9 mph - N/A   Clear
9:15 PM 46.4 °F 42.4 °F 26.6 °F 46% 29.98 in 10.0 mi ESE 8.1 mph - N/A   Clear
9:35 PM 44.6 °F 40.7 °F 26.6 °F 49% 29.98 in 10.0 mi East 6.9 mph - N/A   Clear
9:55 PM 44.6 °F 41.4 °F 26.6 °F 49% 29.99 in 10.0 mi East 5.8 mph - N/A   Clear
10:15 PM 42.8 °F 39.3 °F 26.6 °F 53% 30.00 in 10.0 mi East 5.8 mph - N/A   Clear
10:35 PM 42.8 °F 37.5 °F 26.6 °F 53% 30.01 in 10.0 mi East 9.2 mph - N/A   Clear
11:15 PM 42.8 °F 38.0 °F 26.6 °F 53% 30.01 in 10.0 mi East 8.1 mph - N/A   Clear
11:35 PM 42.8 °F 37.5 °F 26.6 °F 53% 30.00 in 10.0 mi East 9.2 mph - N/A   Clear
11:55 PM 42.8 °F 38.0 °F 26.6 °F 53% 30.00 in 10.0 mi East 8.1 mph - N/A   Clear